Terminal Aerodrome Forecast
Issued by NWS

Home | Current Version | Previous Version | Text Only | Print | Product List | Glossary On
Versions: 1 2 3 4 5 6 7 8 9 10 11 12 13 14 15 16 17 18 19 20 21 22 23 24 25
000
FTUS45 KBOI 042034 AAA
TAFBKE
TAF AMD
KBKE 042034Z 0421/0518 31011KT P6SM VCSH BKN120
     FM050000 31012KT P6SM VCTS SCT090CB BKN200
     FM050600 31011KT P6SM SCT120
     FM051500 33014G24KT P6SM FEW150=

USA.gov is the U.S. government's official web portal to all federal, state and local government web resources and services.